createdAt,value
2023-01-12T00:02:30.775Z,97170.66
2023-01-12T00:06:32.426Z,97180.78
2023-01-12T00:10:32.453Z,97184.81
2023-01-12T00:14:32.503Z,97179.72
2023-01-12T00:18:35.449Z,97172.34
2023-01-12T00:22:35.517Z,97178.09
2023-01-12T00:26:35.549Z,97186.16
2023-01-12T00:30:35.607Z,97191.56
2023-01-12T00:34:38.302Z,97190.72
2023-01-12T00:38:39.036Z,97194.13
2023-01-12T00:42:52.558Z,97201.28
2023-01-12T00:46:52.957Z,97201.28
2023-01-12T00:50:55.565Z,97200.31
2023-01-12T00:54:55.584Z,97171.25
2023-01-12T00:58:55.628Z,97193.88
2023-01-12T01:02:55.773Z,97177.88
2023-01-12T01:06:58.481Z,97192.69
2023-01-12T01:11:04.963Z,97169.06
2023-01-12T01:15:05.164Z,97169.72
2023-01-12T01:19:06.067Z,97200.09
2023-01-12T01:23:08.704Z,97209.63
2023-01-12T01:27:08.743Z,97194.13
2023-01-12T01:31:11.914Z,97185.78
2023-01-12T01:35:12.759Z,97197.94
2023-01-12T01:39:15.485Z,97191.78
2023-01-12T01:43:17.365Z,97196.31
2023-01-12T01:47:36.268Z,97190.50
2023-01-12T01:51:36.335Z,97189.69
2023-01-12T01:55:48.359Z,97180.53
2023-01-12T01:59:57.857Z,97190.81
2023-01-12T02:04:00.882Z,97202.88
2023-01-12T02:08:11.280Z,97184.69
2023-01-12T02:12:26.867Z,97193.88
2023-01-12T02:16:33.293Z,97185.19
2023-01-12T02:21:07.160Z,97187.38
2023-01-12T02:25:58.518Z,97171.97
2023-01-12T02:30:56.008Z,97184.03
2023-01-12T02:35:13.074Z,97169.47
2023-01-12T02:39:22.175Z,97175.16
2023-01-12T02:43:30.590Z,97167.34
2023-01-12T02:47:41.072Z,97152.75
2023-01-12T02:51:50.846Z,97146.16
2023-01-12T02:55:51.959Z,97158.53
2023-01-12T02:59:54.237Z,97153.63
2023-01-12T03:04:00.960Z,97143.63
2023-01-12T03:08:06.986Z,97144.53
2023-01-12T03:12:13.341Z,97147.50
2023-01-12T03:16:17.789Z,97145.59
2023-01-12T03:20:26.252Z,97138.97
2023-01-12T03:24:35.380Z,97098.03
2023-01-12T03:28:39.764Z,97132.22
2023-01-12T03:32:40.095Z,97128.13
2023-01-12T03:36:52.329Z,97124.44
2023-01-12T03:41:08.481Z,97117.81
2023-01-12T03:45:21.707Z,97090.81
2023-01-12T03:49:33.585Z,97094.00
2023-01-12T03:53:36.131Z,97113.09
2023-01-12T03:57:41.355Z,97106.25
2023-01-12T04:01:42.064Z,97098.44
2023-01-12T04:05:44.622Z,97101.06
2023-01-12T04:09:44.642Z,97107.91
2023-01-12T04:13:47.271Z,97092.66
2023-01-12T04:17:47.308Z,97105.94
2023-01-12T04:21:59.869Z,97101.31
2023-01-12T04:25:59.948Z,97099.31
2023-01-12T04:30:02.659Z,97104.31
2023-01-12T04:34:02.690Z,97076.94
2023-01-12T04:38:10.299Z,97082.28
2023-01-12T04:42:30.809Z,97077.66
2023-01-12T04:46:33.565Z,97005.91
2023-01-12T04:50:34.098Z,97089.38
2023-01-12T04:54:34.201Z,97090.25
2023-01-12T04:58:35.103Z,97094.72
2023-01-12T05:02:37.780Z,97091.81
2023-01-12T05:06:37.927Z,97081.78
2023-01-12T05:10:38.054Z,97080.63
2023-01-12T05:14:38.417Z,97070.91
2023-01-12T05:18:41.327Z,97067.03
2023-01-12T05:22:41.442Z,97075.06
2023-01-12T05:26:42.203Z,97068.88
2023-01-12T05:30:42.279Z,97063.78
2023-01-12T05:34:44.880Z,97073.94
2023-01-12T05:38:45.305Z,97064.72
2023-01-12T05:42:57.852Z,97070.25
2023-01-12T05:46:57.970Z,97069.22
2023-01-12T05:51:04.078Z,97058.47
2023-01-12T05:55:04.142Z,97014.16
2023-01-12T05:59:06.064Z,97059.50
2023-01-12T06:03:06.668Z,97074.22
2023-01-12T06:07:09.317Z,97069.88
2023-01-12T06:11:29.404Z,97060.19
2023-01-12T06:15:29.413Z,97043.94
2023-01-12T06:19:29.511Z,97060.84
2023-01-12T06:23:35.334Z,97046.78
2023-01-12T06:27:38.323Z,97071.41
2023-01-12T06:31:38.879Z,97049.06
2023-01-12T06:35:38.977Z,97042.19
2023-01-12T06:39:41.626Z,97029.44
2023-01-12T06:43:41.634Z,97045.81
2023-01-12T06:47:49.423Z,97038.50
2023-01-12T06:51:51.605Z,97047.66
2023-01-12T06:55:55.589Z,97039.19
2023-01-12T06:59:56.910Z,97015.41
2023-01-12T07:03:57.283Z,97035.25
2023-01-12T07:08:02.190Z,96983.53
2023-01-12T07:12:04.944Z,96999.84
2023-01-12T07:16:05.563Z,97023.53
2023-01-12T07:20:05.723Z,96996.94
2023-01-12T07:24:06.076Z,97027.38
2023-01-12T07:28:08.827Z,97017.19
2023-01-12T07:32:09.528Z,97006.66
2023-01-12T07:36:10.439Z,97012.53
2023-01-12T07:40:13.323Z,97003.50
2023-01-12T07:44:15.950Z,97011.41
2023-01-12T07:48:16.524Z,97007.53
2023-01-12T07:52:17.558Z,97009.97
2023-01-12T07:56:19.222Z,97004.66
2023-01-12T08:00:24.387Z,97007.88
2023-01-12T08:04:25.068Z,96964.38
2023-01-12T08:08:25.178Z,96990.91
2023-01-12T08:12:25.240Z,97001.16
2023-01-12T08:16:33.959Z,96995.97
2023-01-12T08:20:38.414Z,96996.94
2023-01-12T08:24:47.323Z,97001.44
2023-01-12T08:28:54.361Z,96999.66
2023-01-12T08:33:01.268Z,96993.69
2023-01-12T08:37:07.229Z,96983.41
2023-01-12T08:41:20.385Z,96966.16
2023-01-12T08:45:21.619Z,96998.88
2023-01-12T08:49:28.405Z,96988.97
2023-01-12T08:53:28.455Z,96990.50
2023-01-12T08:57:28.634Z,96974.25
2023-01-12T09:01:28.990Z,96992.91
2023-01-12T09:05:31.659Z,96992.47
2023-01-12T09:09:31.717Z,96975.72
2023-01-12T09:13:31.758Z,96975.66
2023-01-12T09:17:31.821Z,96993.25
2023-01-12T09:21:35.287Z,96976.41
2023-01-12T09:25:37.185Z,96980.06
2023-01-12T09:29:37.343Z,96985.31
2023-01-12T09:33:41.125Z,97010.94
2023-01-12T09:37:45.041Z,97004.19
2023-01-12T09:42:03.594Z,96994.69
2023-01-12T09:46:16.353Z,96995.44
2023-01-12T09:50:22.587Z,96958.31
2023-01-12T09:54:25.491Z,96983.44
2023-01-12T09:58:50.406Z,96962.03
2023-01-12T10:02:56.144Z,96976.91
2023-01-12T10:06:57.423Z,96960.44
2023-01-12T10:11:18.315Z,96960.53
2023-01-12T10:15:34.084Z,96969.28
2023-01-12T10:19:47.180Z,96970.88
2023-01-12T10:23:48.760Z,96964.13
2023-01-12T10:27:54.291Z,96950.25
2023-01-12T10:31:54.559Z,96956.03
2023-01-12T10:36:02.172Z,96959.88
2023-01-12T10:40:02.305Z,96953.09
2023-01-12T10:44:18.466Z,96950.13
2023-01-12T10:48:24.023Z,96955.66
2023-01-12T10:52:42.175Z,96946.25
2023-01-12T10:56:55.620Z,96938.88
2023-01-12T11:00:58.969Z,96932.47
2023-01-12T11:04:59.100Z,96928.28
2023-01-12T11:09:00.398Z,96925.28
2023-01-12T11:13:03.592Z,96928.28
2023-01-12T11:17:36.758Z,96910.78
2023-01-12T11:21:43.876Z,96886.47
2023-01-12T11:25:49.466Z,96904.63
2023-01-12T11:30:00.652Z,96911.50
2023-01-12T11:34:11.209Z,96907.19
2023-01-12T11:38:20.031Z,96896.34
2023-01-12T11:42:40.426Z,96899.75
2023-01-12T11:46:48.399Z,96859.84
2023-01-12T11:50:53.569Z,96880.38
2023-01-12T11:54:53.733Z,96867.22
2023-01-12T11:59:05.494Z,96871.03
2023-01-12T12:03:40.891Z,96855.09
2023-01-12T12:08:03.253Z,96862.56
2023-01-12T12:12:10.653Z,96832.13
2023-01-12T12:16:29.210Z,96868.22
2023-01-12T12:20:41.651Z,96810.41
2023-01-12T12:25:11.774Z,96841.81
2023-01-12T12:29:41.208Z,96845.81
2023-01-12T12:34:09.672Z,96794.91
2023-01-12T12:38:30.218Z,96831.94
2023-01-12T12:43:06.718Z,96819.69
2023-01-12T12:47:42.973Z,96801.38
2023-01-12T12:51:44.889Z,96821.47
2023-01-12T12:55:46.951Z,96817.06
2023-01-12T13:00:03.238Z,96801.50
2023-01-12T13:04:05.557Z,96813.47
2023-01-12T13:08:06.291Z,96800.25
2023-01-12T13:12:34.630Z,96811.72
2023-01-12T13:16:51.879Z,96801.56
2023-01-12T13:21:01.158Z,96802.84
2023-01-12T13:25:03.546Z,96800.19
2023-01-12T13:29:44.498Z,96797.94
2023-01-12T13:33:47.204Z,96726.53
2023-01-12T13:37:57.765Z,96788.06
2023-01-12T13:42:11.548Z,96773.59
2023-01-12T13:46:19.768Z,96790.22
2023-01-12T13:50:26.669Z,96790.72
2023-01-12T13:54:26.879Z,96785.66
2023-01-12T13:58:27.581Z,96749.09
2023-01-12T14:02:30.421Z,96803.59
2023-01-12T14:06:49.429Z,96799.31
2023-01-12T14:11:00.218Z,96787.19
2023-01-12T14:15:39.292Z,96780.31
2023-01-12T14:19:44.363Z,96773.38
2023-01-12T14:23:47.072Z,96781.84
2023-01-12T14:27:55.384Z,96770.06
2023-01-12T14:31:57.071Z,96770.75
2023-01-12T14:36:01.616Z,96781.81
2023-01-12T14:40:04.721Z,96778.34
2023-01-12T14:44:18.454Z,96781.13
2023-01-12T14:48:32.185Z,96779.50
2023-01-12T14:52:36.369Z,96757.34
2023-01-12T14:56:46.041Z,96785.09
2023-01-12T15:00:48.029Z,96774.06
2023-01-12T15:04:57.834Z,96744.81
2023-01-12T15:09:02.994Z,96771.91
2023-01-12T15:13:29.100Z,96757.06
2023-01-12T15:17:56.574Z,96795.47
2023-01-12T15:22:09.238Z,96767.72
2023-01-12T15:26:09.270Z,96774.28
2023-01-12T15:30:14.928Z,96772.59
2023-01-12T15:34:15.254Z,96778.81
2023-01-12T15:38:17.488Z,96775.94
2023-01-12T15:42:22.216Z,96757.84
2023-01-12T15:46:24.883Z,96769.25
2023-01-12T15:50:24.983Z,96771.66
2023-01-12T15:54:25.362Z,96772.06
2023-01-12T15:58:26.286Z,96710.13
2023-01-12T16:02:38.134Z,96785.47
2023-01-12T16:06:38.421Z,96788.50
2023-01-12T16:10:58.914Z,96775.16
2023-01-12T16:14:59.869Z,96799.28
2023-01-12T16:19:06.038Z,96768.84
2023-01-12T16:23:06.079Z,96777.78
2023-01-12T16:27:06.191Z,96804.72
2023-01-12T16:31:10.103Z,96808.44
2023-01-12T16:35:12.820Z,96796.66
2023-01-12T16:39:15.437Z,96784.69
2023-01-12T16:43:20.918Z,96815.72
2023-01-12T16:47:24.461Z,96800.47
2023-01-12T16:51:27.985Z,96788.75
2023-01-12T16:55:28.174Z,96785.41
2023-01-12T16:59:30.298Z,96777.66
2023-01-12T17:03:30.489Z,96781.06
2023-01-12T17:07:33.884Z,96785.34
2023-01-12T17:11:35.139Z,96782.41
2023-01-12T17:15:37.582Z,96789.22
2023-01-12T17:19:42.687Z,96784.84
2023-01-12T17:23:47.061Z,96781.88
2023-01-12T17:27:48.378Z,96769.53
2023-01-12T17:31:49.545Z,96780.75
2023-01-12T17:35:49.851Z,96773.19
2023-01-12T17:39:53.059Z,96776.66
2023-01-12T17:43:53.132Z,96771.38
2023-01-12T17:47:53.325Z,96785.63
2023-01-12T17:51:53.492Z,96773.38
2023-01-12T17:55:56.748Z,96782.88
2023-01-12T17:59:57.541Z,96772.22
2023-01-12T18:03:58.102Z,96767.63
2023-01-12T18:07:58.413Z,96756.94
2023-01-12T18:12:01.469Z,96747.09
2023-01-12T18:16:03.000Z,96751.63
2023-01-12T18:20:04.255Z,96748.19
2023-01-12T18:24:09.457Z,96752.63
2023-01-12T18:28:12.321Z,96733.63
2023-01-12T18:32:12.689Z,96737.72
2023-01-12T18:36:17.104Z,96741.88
2023-01-12T18:40:17.262Z,96751.47
2023-01-12T18:44:20.793Z,96740.19
2023-01-12T18:48:24.339Z,96735.22
2023-01-12T18:52:36.941Z,96720.84
2023-01-12T18:56:37.024Z,96721.09
2023-01-12T19:00:40.439Z,96716.19
2023-01-12T19:05:00.835Z,96717.75
2023-01-12T19:09:13.397Z,96711.47
2023-01-12T19:13:25.965Z,96684.31
2023-01-12T19:17:32.953Z,96712.50
2023-01-12T19:21:45.627Z,96728.19
2023-01-12T19:25:58.273Z,96717.63
2023-01-12T19:29:58.313Z,96717.75
2023-01-12T19:34:01.027Z,96676.19
2023-01-12T19:38:01.104Z,96707.91
2023-01-12T19:42:13.645Z,96679.41
2023-01-12T19:46:15.551Z,96703.88
2023-01-12T19:50:18.512Z,96705.19
2023-01-12T19:54:19.270Z,96684.91
2023-01-12T19:58:21.948Z,96666.47
2023-01-12T20:02:22.222Z,96676.66
2023-01-12T20:06:25.203Z,96672.75
2023-01-12T20:10:26.528Z,96666.03
2023-01-12T20:14:26.626Z,96680.72
2023-01-12T20:18:27.153Z,96681.97
2023-01-12T20:22:29.853Z,96671.06
2023-01-12T20:26:30.312Z,96667.38
2023-01-12T20:30:37.915Z,96654.03
2023-01-12T20:34:38.592Z,96651.91
2023-01-12T20:38:42.290Z,96655.31
2023-01-12T20:42:42.835Z,96656.84
2023-01-12T20:46:43.133Z,96641.94
2023-01-12T20:50:46.478Z,96618.16
2023-01-12T20:54:49.317Z,96650.75
2023-01-12T20:58:49.519Z,96643.03
2023-01-12T21:02:49.613Z,96594.78
2023-01-12T21:06:49.941Z,96632.53
2023-01-12T21:10:56.854Z,96628.13
2023-01-12T21:14:57.122Z,96621.47
2023-01-12T21:18:57.287Z,96629.47
2023-01-12T21:22:57.412Z,96631.63
2023-01-12T21:27:00.257Z,96616.56
2023-01-12T21:31:04.087Z,96634.22
2023-01-12T21:35:04.493Z,96613.41
2023-01-12T21:39:04.937Z,96604.34
2023-01-12T21:43:12.448Z,96620.06
2023-01-12T21:47:12.922Z,96597.91
2023-01-12T21:51:16.519Z,96594.19
2023-01-12T21:55:18.917Z,96551.94
2023-01-12T21:59:21.713Z,96548.03
2023-01-12T22:03:22.570Z,96620.09
2023-01-12T22:07:22.688Z,96615.03
2023-01-12T22:11:22.794Z,96615.03
2023-01-12T22:15:29.427Z,96615.03
2023-01-12T22:19:29.496Z,96621.72
2023-01-12T22:23:29.651Z,96609.47
2023-01-12T22:27:29.702Z,96612.34
2023-01-12T22:31:32.539Z,96584.66
2023-01-12T22:35:32.792Z,96597.69
2023-01-12T22:39:32.844Z,96603.28
2023-01-12T22:43:32.922Z,96612.94
2023-01-12T22:47:47.707Z,96602.50
2023-01-12T22:51:48.471Z,96532.59
2023-01-12T22:55:49.041Z,96578.69
2023-01-12T22:59:49.248Z,96600.06
2023-01-12T23:03:55.521Z,96589.97
2023-01-12T23:07:55.749Z,96600.41
2023-01-12T23:11:55.945Z,96589.47
2023-01-12T23:15:58.913Z,96592.63
2023-01-12T23:20:02.356Z,96564.34
2023-01-12T23:24:03.579Z,96567.03
2023-01-12T23:28:04.415Z,96578.53
2023-01-12T23:32:04.854Z,96579.59
2023-01-12T23:36:10.983Z,96577.19
2023-01-12T23:40:13.739Z,96556.38
2023-01-12T23:44:14.097Z,96568.56
2023-01-12T23:48:14.302Z,96542.22
2023-01-12T23:52:17.250Z,96575.03
2023-01-12T23:56:19.788Z,96560.09
